sensor_id;sensor_type;location;lat;lon;timestamp;P1;durP1;ratioP1;P2;durP2;ratioP2
6422;SDS011;3244;42.708;23.288;2023-05-23T00:02:23;9.20;;;8.45;;
6422;SDS011;3244;42.708;23.288;2023-05-23T00:04:50;9.30;;;8.50;;
6422;SDS011;3244;42.708;23.288;2023-05-23T00:07:16;10.63;;;8.38;;
6422;SDS011;3244;42.708;23.288;2023-05-23T00:09:43;9.10;;;8.30;;
6422;SDS011;3244;42.708;23.288;2023-05-23T00:12:09;9.55;;;8.75;;
6422;SDS011;3244;42.708;23.288;2023-05-23T00:14:36;9.02;;;8.32;;
6422;SDS011;3244;42.708;23.288;2023-05-23T00:17:04;9.55;;;8.65;;
6422;SDS011;3244;42.708;23.288;2023-05-23T00:19:33;11.18;;;10.20;;
6422;SDS011;3244;42.708;23.288;2023-05-23T00:22:00;10.68;;;9.75;;
6422;SDS011;3244;42.708;23.288;2023-05-23T00:24:27;12.02;;;10.88;;
6422;SDS011;3244;42.708;23.288;2023-05-23T00:26:54;11.88;;;10.77;;
6422;SDS011;3244;42.708;23.288;2023-05-23T00:29:22;10.48;;;9.43;;
6422;SDS011;3244;42.708;23.288;2023-05-23T00:31:49;9.65;;;8.88;;
6422;SDS011;3244;42.708;23.288;2023-05-23T00:34:16;10.15;;;9.27;;
6422;SDS011;3244;42.708;23.288;2023-05-23T00:36:44;9.90;;;9.00;;
6422;SDS011;3244;42.708;23.288;2023-05-23T00:39:14;10.35;;;9.35;;
6422;SDS011;3244;42.708;23.288;2023-05-23T00:41:43;19.38;;;9.77;;
6422;SDS011;3244;42.708;23.288;2023-05-23T00:44:10;10.93;;;9.90;;
6422;SDS011;3244;42.708;23.288;2023-05-23T00:46:37;10.93;;;9.95;;
6422;SDS011;3244;42.708;23.288;2023-05-23T00:49:04;11.38;;;10.15;;
6422;SDS011;3244;42.708;23.288;2023-05-23T00:51:31;9.63;;;8.82;;
6422;SDS011;3244;42.708;23.288;2023-05-23T00:53:59;9.68;;;8.88;;
6422;SDS011;3244;42.708;23.288;2023-05-23T00:56:27;12.00;;;9.43;;
6422;SDS011;3244;42.708;23.288;2023-05-23T00:58:54;13.77;;;10.40;;
6422;SDS011;3244;42.708;23.288;2023-05-23T01:01:21;10.35;;;9.40;;
6422;SDS011;3244;42.708;23.288;2023-05-23T01:03:48;10.60;;;9.40;;
6422;SDS011;3244;42.708;23.288;2023-05-23T01:06:15;11.02;;;10.13;;
6422;SDS011;3244;42.708;23.288;2023-05-23T01:08:42;11.23;;;10.23;;
6422;SDS011;3244;42.708;23.288;2023-05-23T01:11:13;13.63;;;9.98;;
6422;SDS011;3244;42.708;23.288;2023-05-23T01:13:46;11.70;;;10.60;;
6422;SDS011;3244;42.708;23.288;2023-05-23T01:16:24;11.45;;;10.38;;
6422;SDS011;3244;42.708;23.288;2023-05-23T01:19:00;12.10;;;9.40;;
6422;SDS011;3244;42.708;23.288;2023-05-23T01:21:37;11.02;;;9.48;;
6422;SDS011;3244;42.708;23.288;2023-05-23T01:27:17;10.60;;;8.63;;
6422;SDS011;3244;42.708;23.288;2023-05-23T01:29:56;9.02;;;8.27;;
6422;SDS011;3244;42.708;23.288;2023-05-23T01:32:26;9.27;;;8.50;;
6422;SDS011;3244;42.708;23.288;2023-05-23T01:34:54;9.77;;;8.90;;
6422;SDS011;3244;42.708;23.288;2023-05-23T01:37:22;8.30;;;7.60;;
6422;SDS011;3244;42.708;23.288;2023-05-23T01:39:48;9.20;;;8.40;;
6422;SDS011;3244;42.708;23.288;2023-05-23T01:42:15;11.45;;;8.35;;
6422;SDS011;3244;42.708;23.288;2023-05-23T01:44:43;6.68;;;6.07;;
6422;SDS011;3244;42.708;23.288;2023-05-23T01:47:12;7.47;;;6.80;;
6422;SDS011;3244;42.708;23.288;2023-05-23T01:49:40;12.57;;;6.75;;
6422;SDS011;3244;42.708;23.288;2023-05-23T01:52:09;7.70;;;7.10;;
6422;SDS011;3244;42.708;23.288;2023-05-23T01:54:37;7.95;;;7.15;;
6422;SDS011;3244;42.708;23.288;2023-05-23T01:57:06;7.07;;;6.45;;
6422;SDS011;3244;42.708;23.288;2023-05-23T01:59:33;8.65;;;7.05;;
6422;SDS011;3244;42.708;23.288;2023-05-23T02:01:59;7.40;;;6.80;;
6422;SDS011;3244;42.708;23.288;2023-05-23T02:04:28;8.88;;;7.18;;
6422;SDS011;3244;42.708;23.288;2023-05-23T02:06:55;7.35;;;6.75;;
6422;SDS011;3244;42.708;23.288;2023-05-23T02:09:22;7.80;;;6.93;;
6422;SDS011;3244;42.708;23.288;2023-05-23T02:11:49;7.85;;;7.30;;
6422;SDS011;3244;42.708;23.288;2023-05-23T02:14:15;7.15;;;6.63;;
6422;SDS011;3244;42.708;23.288;2023-05-23T02:16:43;6.68;;;6.07;;
6422;SDS011;3244;42.708;23.288;2023-05-23T02:19:10;7.53;;;6.82;;
6422;SDS011;3244;42.708;23.288;2023-05-23T02:21:38;8.00;;;7.07;;
6422;SDS011;3244;42.708;23.288;2023-05-23T02:24:05;10.75;;;7.38;;
6422;SDS011;3244;42.708;23.288;2023-05-23T02:26:31;11.45;;;7.47;;
6422;SDS011;3244;42.708;23.288;2023-05-23T02:28:58;7.43;;;6.50;;
6422;SDS011;3244;42.708;23.288;2023-05-23T02:31:25;8.25;;;7.55;;
6422;SDS011;3244;42.708;23.288;2023-05-23T02:33:51;8.13;;;7.10;;
6422;SDS011;3244;42.708;23.288;2023-05-23T02:36:18;8.68;;;7.57;;
6422;SDS011;3244;42.708;23.288;2023-05-23T02:38:47;7.85;;;7.07;;
6422;SDS011;3244;42.708;23.288;2023-05-23T02:41:13;9.43;;;8.63;;
6422;SDS011;3244;42.708;23.288;2023-05-23T02:43:40;8.15;;;7.38;;
6422;SDS011;3244;42.708;23.288;2023-05-23T02:46:06;8.38;;;7.57;;
6422;SDS011;3244;42.708;23.288;2023-05-23T02:48:33;8.35;;;7.55;;
6422;SDS011;3244;42.708;23.288;2023-05-23T02:51:00;9.70;;;7.10;;
6422;SDS011;3244;42.708;23.288;2023-05-23T02:53:26;8.23;;;7.40;;
6422;SDS011;3244;42.708;23.288;2023-05-23T02:55:54;15.18;;;8.27;;
6422;SDS011;3244;42.708;23.288;2023-05-23T02:58:21;9.73;;;6.85;;
6422;SDS011;3244;42.708;23.288;2023-05-23T03:00:48;8.23;;;7.53;;
6422;SDS011;3244;42.708;23.288;2023-05-23T03:03:15;9.88;;;7.57;;
6422;SDS011;3244;42.708;23.288;2023-05-23T03:05:42;13.13;;;7.40;;
6422;SDS011;3244;42.708;23.288;2023-05-23T03:08:09;8.63;;;7.93;;
6422;SDS011;3244;42.708;23.288;2023-05-23T03:10:36;9.07;;;8.25;;
6422;SDS011;3244;42.708;23.288;2023-05-23T03:13:04;11.15;;;7.47;;
6422;SDS011;3244;42.708;23.288;2023-05-23T03:15:30;9.50;;;8.55;;
6422;SDS011;3244;42.708;23.288;2023-05-23T03:17:57;7.95;;;7.35;;
6422;SDS011;3244;42.708;23.288;2023-05-23T03:20:24;9.65;;;8.77;;
6422;SDS011;3244;42.708;23.288;2023-05-23T03:22:50;13.27;;;9.70;;
6422;SDS011;3244;42.708;23.288;2023-05-23T03:25:17;14.32;;;9.80;;
6422;SDS011;3244;42.708;23.288;2023-05-23T03:27:43;10.10;;;8.93;;
6422;SDS011;3244;42.708;23.288;2023-05-23T03:30:12;14.70;;;9.45;;
6422;SDS011;3244;42.708;23.288;2023-05-23T03:32:39;12.23;;;8.88;;
6422;SDS011;3244;42.708;23.288;2023-05-23T03:35:06;14.35;;;9.35;;
6422;SDS011;3244;42.708;23.288;2023-05-23T03:37:33;17.98;;;11.18;;
6422;SDS011;3244;42.708;23.288;2023-05-23T03:40:00;20.20;;;10.70;;
6422;SDS011;3244;42.708;23.288;2023-05-23T03:42:27;18.98;;;10.07;;
6422;SDS011;3244;42.708;23.288;2023-05-23T03:44:54;15.75;;;11.57;;
6422;SDS011;3244;42.708;23.288;2023-05-23T03:47:23;19.83;;;10.95;;
6422;SDS011;3244;42.708;23.288;2023-05-23T03:49:49;20.90;;;11.38;;
6422;SDS011;3244;42.708;23.288;2023-05-23T03:52:16;15.65;;;10.65;;
6422;SDS011;3244;42.708;23.288;2023-05-23T03:54:43;15.63;;;11.02;;
6422;SDS011;3244;42.708;23.288;2023-05-23T03:57:10;20.67;;;10.82;;
6422;SDS011;3244;42.708;23.288;2023-05-23T03:59:36;17.10;;;11.25;;
6422;SDS011;3244;42.708;23.288;2023-05-23T04:02:03;15.85;;;10.45;;
6422;SDS011;3244;42.708;23.288;2023-05-23T04:04:32;14.45;;;10.82;;
6422;SDS011;3244;42.708;23.288;2023-05-23T04:06:58;17.67;;;11.00;;
6422;SDS011;3244;42.708;23.288;2023-05-23T04:09:25;12.73;;;9.82;;
6422;SDS011;3244;42.708;23.288;2023-05-23T04:11:52;13.73;;;9.88;;
6422;SDS011;3244;42.708;23.288;2023-05-23T04:14:18;18.85;;;9.80;;
6422;SDS011;3244;42.708;23.288;2023-05-23T04:16:46;9.73;;;8.75;;
6422;SDS011;3244;42.708;23.288;2023-05-23T04:19:13;10.63;;;8.63;;
6422;SDS011;3244;42.708;23.288;2023-05-23T04:21:41;11.15;;;9.02;;
6422;SDS011;3244;42.708;23.288;2023-05-23T04:24:08;13.00;;;9.20;;
6422;SDS011;3244;42.708;23.288;2023-05-23T04:26:35;8.85;;;7.95;;
6422;SDS011;3244;42.708;23.288;2023-05-23T04:29:01;8.80;;;7.50;;
6422;SDS011;3244;42.708;23.288;2023-05-23T04:31:29;9.35;;;8.50;;
6422;SDS011;3244;42.708;23.288;2023-05-23T04:33:57;11.88;;;8.70;;
6422;SDS011;3244;42.708;23.288;2023-05-23T04:36:24;9.27;;;8.48;;
6422;SDS011;3244;42.708;23.288;2023-05-23T04:38:52;9.82;;;8.93;;
6422;SDS011;3244;42.708;23.288;2023-05-23T04:41:20;8.85;;;8.00;;
6422;SDS011;3244;42.708;23.288;2023-05-23T04:43:47;7.40;;;6.85;;
6422;SDS011;3244;42.708;23.288;2023-05-23T04:46:18;11.82;;;7.13;;
6422;SDS011;3244;42.708;23.288;2023-05-23T04:48:50;9.40;;;7.40;;
6422;SDS011;3244;42.708;23.288;2023-05-23T04:51:17;8.02;;;7.32;;
6422;SDS011;3244;42.708;23.288;2023-05-23T04:53:45;7.63;;;6.97;;
6422;SDS011;3244;42.708;23.288;2023-05-23T04:56:13;13.32;;;7.05;;
6422;SDS011;3244;42.708;23.288;2023-05-23T04:58:42;9.00;;;6.22;;
6422;SDS011;3244;42.708;23.288;2023-05-23T05:01:09;6.55;;;5.95;;
6422;SDS011;3244;42.708;23.288;2023-05-23T05:03:36;6.85;;;6.22;;
6422;SDS011;3244;42.708;23.288;2023-05-23T05:06:03;6.47;;;5.97;;
6422;SDS011;3244;42.708;23.288;2023-05-23T05:08:30;7.05;;;6.07;;
6422;SDS011;3244;42.708;23.288;2023-05-23T05:10:57;9.23;;;6.55;;
6422;SDS011;3244;42.708;23.288;2023-05-23T05:13:25;7.57;;;6.88;;
6422;SDS011;3244;42.708;23.288;2023-05-23T05:15:51;54.95;;;7.93;;
6422;SDS011;3244;42.708;23.288;2023-05-23T05:18:18;7.40;;;6.70;;
6422;SDS011;3244;42.708;23.288;2023-05-23T05:20:45;8.30;;;6.57;;
6422;SDS011;3244;42.708;23.288;2023-05-23T05:23:11;7.22;;;5.93;;
6422;SDS011;3244;42.708;23.288;2023-05-23T05:25:38;8.07;;;6.55;;
6422;SDS011;3244;42.708;23.288;2023-05-23T05:28:05;6.70;;;6.20;;
6422;SDS011;3244;42.708;23.288;2023-05-23T05:30:33;7.25;;;6.43;;
6422;SDS011;3244;42.708;23.288;2023-05-23T05:33:00;8.02;;;6.88;;
6422;SDS011;3244;42.708;23.288;2023-05-23T05:35:28;7.88;;;7.07;;
6422;SDS011;3244;42.708;23.288;2023-05-23T05:37:55;6.93;;;6.53;;
6422;SDS011;3244;42.708;23.288;2023-05-23T05:40:22;10.43;;;7.60;;
6422;SDS011;3244;42.708;23.288;2023-05-23T05:42:49;7.22;;;6.60;;
6422;SDS011;3244;42.708;23.288;2023-05-23T05:45:15;7.88;;;7.20;;
6422;SDS011;3244;42.708;23.288;2023-05-23T05:47:43;7.80;;;7.18;;
6422;SDS011;3244;42.708;23.288;2023-05-23T05:50:10;25.67;;;10.35;;
6422;SDS011;3244;42.708;23.288;2023-05-23T05:52:37;13.30;;;8.77;;
6422;SDS011;3244;42.708;23.288;2023-05-23T05:55:05;11.60;;;10.55;;
6422;SDS011;3244;42.708;23.288;2023-05-23T05:57:32;10.70;;;9.80;;
6422;SDS011;3244;42.708;23.288;2023-05-23T05:59:59;11.27;;;9.75;;
6422;SDS011;3244;42.708;23.288;2023-05-23T06:02:26;11.40;;;10.30;;
6422;SDS011;3244;42.708;23.288;2023-05-23T06:04:54;12.75;;;11.27;;
6422;SDS011;3244;42.708;23.288;2023-05-23T06:07:20;11.88;;;10.77;;
6422;SDS011;3244;42.708;23.288;2023-05-23T06:09:47;12.55;;;10.32;;
6422;SDS011;3244;42.708;23.288;2023-05-23T06:12:13;11.77;;;10.57;;
6422;SDS011;3244;42.708;23.288;2023-05-23T06:14:40;11.75;;;10.55;;
6422;SDS011;3244;42.708;23.288;2023-05-23T06:17:07;13.02;;;9.98;;
6422;SDS011;3244;42.708;23.288;2023-05-23T06:19:33;19.67;;;13.18;;
6422;SDS011;3244;42.708;23.288;2023-05-23T06:22:03;13.60;;;11.13;;
6422;SDS011;3244;42.708;23.288;2023-05-23T06:24:29;12.38;;;10.32;;
6422;SDS011;3244;42.708;23.288;2023-05-23T06:26:56;17.30;;;11.40;;
6422;SDS011;3244;42.708;23.288;2023-05-23T06:29:23;17.60;;;11.88;;
6422;SDS011;3244;42.708;23.288;2023-05-23T06:31:50;15.48;;;11.60;;
6422;SDS011;3244;42.708;23.288;2023-05-23T06:34:17;14.48;;;12.75;;
6422;SDS011;3244;42.708;23.288;2023-05-23T06:36:43;12.75;;;11.52;;
6422;SDS011;3244;42.708;23.288;2023-05-23T06:39:12;13.43;;;12.07;;
6422;SDS011;3244;42.708;23.288;2023-05-23T06:41:39;12.23;;;10.98;;
6422;SDS011;3244;42.708;23.288;2023-05-23T06:44:06;14.52;;;12.93;;
6422;SDS011;3244;42.708;23.288;2023-05-23T06:46:32;17.42;;;12.02;;
6422;SDS011;3244;42.708;23.288;2023-05-23T06:48:59;11.48;;;10.52;;
6422;SDS011;3244;42.708;23.288;2023-05-23T06:51:26;11.80;;;9.90;;
6422;SDS011;3244;42.708;23.288;2023-05-23T06:53:52;10.02;;;8.93;;
6422;SDS011;3244;42.708;23.288;2023-05-23T06:56:21;10.00;;;9.02;;
6422;SDS011;3244;42.708;23.288;2023-05-23T06:58:48;11.05;;;10.00;;
6422;SDS011;3244;42.708;23.288;2023-05-23T07:01:15;17.90;;;10.73;;
6422;SDS011;3244;42.708;23.288;2023-05-23T07:03:41;11.85;;;10.05;;
6422;SDS011;3244;42.708;23.288;2023-05-23T07:06:09;10.57;;;9.68;;
6422;SDS011;3244;42.708;23.288;2023-05-23T07:08:36;11.27;;;10.20;;
6422;SDS011;3244;42.708;23.288;2023-05-23T07:11:03;12.18;;;11.00;;
6422;SDS011;3244;42.708;23.288;2023-05-23T07:13:32;10.98;;;10.02;;
6422;SDS011;3244;42.708;23.288;2023-05-23T07:15:59;11.77;;;10.82;;
6422;SDS011;3244;42.708;23.288;2023-05-23T07:18:25;11.57;;;10.43;;
6422;SDS011;3244;42.708;23.288;2023-05-23T07:20:52;14.38;;;11.07;;
6422;SDS011;3244;42.708;23.288;2023-05-23T07:23:19;13.45;;;10.80;;
6422;SDS011;3244;42.708;23.288;2023-05-23T07:25:47;17.60;;;11.25;;
6422;SDS011;3244;42.708;23.288;2023-05-23T07:28:14;15.23;;;12.30;;
6422;SDS011;3244;42.708;23.288;2023-05-23T07:30:42;17.30;;;11.35;;
6422;SDS011;3244;42.708;23.288;2023-05-23T07:33:09;16.70;;;14.07;;
6422;SDS011;3244;42.708;23.288;2023-05-23T07:35:35;20.95;;;17.35;;
6422;SDS011;3244;42.708;23.288;2023-05-23T07:38:02;21.30;;;18.38;;
6422;SDS011;3244;42.708;23.288;2023-05-23T07:40:29;21.42;;;17.10;;
6422;SDS011;3244;42.708;23.288;2023-05-23T07:42:55;18.45;;;16.52;;
6422;SDS011;3244;42.708;23.288;2023-05-23T07:45:24;18.48;;;16.25;;
6422;SDS011;3244;42.708;23.288;2023-05-23T07:47:52;19.63;;;16.08;;
6422;SDS011;3244;42.708;23.288;2023-05-23T07:50:18;18.83;;;15.98;;
6422;SDS011;3244;42.708;23.288;2023-05-23T07:52:45;23.17;;;16.45;;
6422;SDS011;3244;42.708;23.288;2023-05-23T07:55:12;24.83;;;17.80;;
6422;SDS011;3244;42.708;23.288;2023-05-23T07:57:39;20.17;;;18.02;;
6422;SDS011;3244;42.708;23.288;2023-05-23T08:00:06;22.10;;;18.10;;
6422;SDS011;3244;42.708;23.288;2023-05-23T08:02:34;20.33;;;18.15;;
6422;SDS011;3244;42.708;23.288;2023-05-23T08:05:02;27.10;;;18.30;;
6422;SDS011;3244;42.708;23.288;2023-05-23T08:07:29;25.45;;;19.05;;
6422;SDS011;3244;42.708;23.288;2023-05-23T08:09:55;22.67;;;20.38;;
6422;SDS011;3244;42.708;23.288;2023-05-23T08:12:22;30.52;;;20.48;;
6422;SDS011;3244;42.708;23.288;2023-05-23T08:14:48;32.33;;;24.15;;
6422;SDS011;3244;42.708;23.288;2023-05-23T08:17:15;26.52;;;21.63;;
6422;SDS011;3244;42.708;23.288;2023-05-23T08:19:42;29.73;;;23.00;;
6422;SDS011;3244;42.708;23.288;2023-05-23T08:22:10;28.95;;;22.20;;
6422;SDS011;3244;42.708;23.288;2023-05-23T08:24:37;34.33;;;26.48;;
6422;SDS011;3244;42.708;23.288;2023-05-23T08:27:04;29.40;;;24.20;;
6422;SDS011;3244;42.708;23.288;2023-05-23T08:29:31;31.13;;;25.85;;
6422;SDS011;3244;42.708;23.288;2023-05-23T08:31:59;30.77;;;24.27;;
6422;SDS011;3244;42.708;23.288;2023-05-23T08:34:25;31.25;;;23.58;;
6422;SDS011;3244;42.708;23.288;2023-05-23T08:36:52;28.02;;;22.42;;
6422;SDS011;3244;42.708;23.288;2023-05-23T08:39:20;32.53;;;23.27;;
6422;SDS011;3244;42.708;23.288;2023-05-23T08:41:47;25.80;;;21.23;;
6422;SDS011;3244;42.708;23.288;2023-05-23T08:44:13;29.98;;;18.67;;
6422;SDS011;3244;42.708;23.288;2023-05-23T08:46:43;21.00;;;16.50;;
6422;SDS011;3244;42.708;23.288;2023-05-23T08:49:10;17.20;;;15.45;;
6422;SDS011;3244;42.708;23.288;2023-05-23T08:51:40;18.95;;;16.10;;
6422;SDS011;3244;42.708;23.288;2023-05-23T08:54:08;21.05;;;16.48;;
6422;SDS011;3244;42.708;23.288;2023-05-23T08:56:38;19.77;;;15.80;;
6422;SDS011;3244;42.708;23.288;2023-05-23T08:59:06;17.23;;;12.38;;
6422;SDS011;3244;42.708;23.288;2023-05-23T09:01:34;16.35;;;11.63;;
6422;SDS011;3244;42.708;23.288;2023-05-23T09:04:01;13.85;;;12.52;;
6422;SDS011;3244;42.708;23.288;2023-05-23T09:06:29;16.10;;;11.50;;
6422;SDS011;3244;42.708;23.288;2023-05-23T09:08:56;11.65;;;10.65;;
6422;SDS011;3244;42.708;23.288;2023-05-23T09:11:23;11.40;;;9.60;;
6422;SDS011;3244;42.708;23.288;2023-05-23T09:13:51;12.93;;;10.27;;
6422;SDS011;3244;42.708;23.288;2023-05-23T09:16:18;14.18;;;10.90;;
6422;SDS011;3244;42.708;23.288;2023-05-23T09:18:45;8.75;;;7.65;;
6422;SDS011;3244;42.708;23.288;2023-05-23T09:21:13;7.72;;;6.80;;
6422;SDS011;3244;42.708;23.288;2023-05-23T09:23:40;7.75;;;5.57;;
6422;SDS011;3244;42.708;23.288;2023-05-23T09:26:07;11.00;;;6.18;;
6422;SDS011;3244;42.708;23.288;2023-05-23T09:28:35;8.43;;;5.78;;
6422;SDS011;3244;42.708;23.288;2023-05-23T09:31:05;4.65;;;4.35;;
6422;SDS011;3244;42.708;23.288;2023-05-23T09:33:34;8.38;;;7.63;;
6422;SDS011;3244;42.708;23.288;2023-05-23T09:36:02;4.85;;;3.95;;
6422;SDS011;3244;42.708;23.288;2023-05-23T09:38:30;4.38;;;3.95;;
6422;SDS011;3244;42.708;23.288;2023-05-23T09:40:57;4.95;;;4.35;;
6422;SDS011;3244;42.708;23.288;2023-05-23T09:43:24;6.35;;;4.15;;
6422;SDS011;3244;42.708;23.288;2023-05-23T09:45:52;4.68;;;4.35;;
6422;SDS011;3244;42.708;23.288;2023-05-23T09:48:21;5.20;;;4.50;;
6422;SDS011;3244;42.708;23.288;2023-05-23T09:50:53;4.70;;;4.30;;
6422;SDS011;3244;42.708;23.288;2023-05-23T09:53:20;5.55;;;4.30;;
6422;SDS011;3244;42.708;23.288;2023-05-23T09:55:47;5.93;;;3.85;;
6422;SDS011;3244;42.708;23.288;2023-05-23T09:58:16;5.53;;;4.32;;
6422;SDS011;3244;42.708;23.288;2023-05-23T10:00:45;7.47;;;3.80;;
6422;SDS011;3244;42.708;23.288;2023-05-23T10:03:13;4.72;;;4.13;;
6422;SDS011;3244;42.708;23.288;2023-05-23T10:05:48;6.00;;;3.50;;
6422;SDS011;3244;42.708;23.288;2023-05-23T10:08:19;4.80;;;3.95;;
6422;SDS011;3244;42.708;23.288;2023-05-23T10:13:56;4.78;;;3.97;;
6422;SDS011;3244;42.708;23.288;2023-05-23T10:16:25;4.22;;;3.92;;
6422;SDS011;3244;42.708;23.288;2023-05-23T10:18:56;3.67;;;3.38;;
6422;SDS011;3244;42.708;23.288;2023-05-23T10:21:30;4.18;;;3.15;;
6422;SDS011;3244;42.708;23.288;2023-05-23T10:24:01;8.80;;;4.45;;
6422;SDS011;3244;42.708;23.288;2023-05-23T10:26:29;5.75;;;5.20;;
6422;SDS011;3244;42.708;23.288;2023-05-23T10:28:56;10.32;;;8.30;;
6422;SDS011;3244;42.708;23.288;2023-05-23T10:31:25;4.00;;;3.60;;
6422;SDS011;3244;42.708;23.288;2023-05-23T10:33:55;6.45;;;4.97;;
6422;SDS011;3244;42.708;23.288;2023-05-23T10:36:31;6.65;;;5.50;;
6422;SDS011;3244;42.708;23.288;2023-05-23T10:39:07;3.58;;;3.28;;
6422;SDS011;3244;42.708;23.288;2023-05-23T10:41:40;5.75;;;4.30;;
6422;SDS011;3244;42.708;23.288;2023-05-23T10:44:24;4.15;;;3.50;;
6422;SDS011;3244;42.708;23.288;2023-05-23T10:46:54;4.72;;;4.40;;
6422;SDS011;3244;42.708;23.288;2023-05-23T10:49:28;5.50;;;3.33;;
6422;SDS011;3244;42.708;23.288;2023-05-23T10:52:04;4.00;;;3.70;;
6422;SDS011;3244;42.708;23.288;2023-05-23T10:54:33;4.25;;;3.58;;
6422;SDS011;3244;42.708;23.288;2023-05-23T10:57:03;8.00;;;3.20;;
6422;SDS011;3244;42.708;23.288;2023-05-23T10:59:30;4.07;;;3.78;;
6422;SDS011;3244;42.708;23.288;2023-05-23T11:01:58;4.03;;;3.80;;
6422;SDS011;3244;42.708;23.288;2023-05-23T11:04:26;4.45;;;4.05;;
6422;SDS011;3244;42.708;23.288;2023-05-23T11:06:54;8.25;;;4.20;;
6422;SDS011;3244;42.708;23.288;2023-05-23T11:09:22;5.07;;;3.72;;
6422;SDS011;3244;42.708;23.288;2023-05-23T11:11:52;7.05;;;5.30;;
6422;SDS011;3244;42.708;23.288;2023-05-23T11:17:28;6.78;;;3.40;;
6422;SDS011;3244;42.708;23.288;2023-05-23T11:19:57;4.13;;;3.75;;
6422;SDS011;3244;42.708;23.288;2023-05-23T11:22:28;3.95;;;3.20;;
6422;SDS011;3244;42.708;23.288;2023-05-23T11:24:57;3.63;;;3.25;;
6422;SDS011;3244;42.708;23.288;2023-05-23T11:27:25;6.65;;;3.72;;
6422;SDS011;3244;42.708;23.288;2023-05-23T11:30:00;5.40;;;3.38;;
6422;SDS011;3244;42.708;23.288;2023-05-23T11:32:29;3.80;;;3.47;;
6422;SDS011;3244;42.708;23.288;2023-05-23T11:34:59;5.13;;;3.67;;
6422;SDS011;3244;42.708;23.288;2023-05-23T11:37:26;5.70;;;3.40;;
6422;SDS011;3244;42.708;23.288;2023-05-23T11:39:53;4.60;;;3.15;;
6422;SDS011;3244;42.708;23.288;2023-05-23T11:42:21;5.65;;;3.95;;
6422;SDS011;3244;42.708;23.288;2023-05-23T11:44:49;6.43;;;3.50;;
6422;SDS011;3244;42.708;23.288;2023-05-23T11:47:16;6.65;;;4.60;;
6422;SDS011;3244;42.708;23.288;2023-05-23T11:49:43;6.63;;;3.28;;
6422;SDS011;3244;42.708;23.288;2023-05-23T11:52:11;4.00;;;3.70;;
6422;SDS011;3244;42.708;23.288;2023-05-23T11:54:39;4.03;;;3.67;;
6422;SDS011;3244;42.708;23.288;2023-05-23T11:57:06;3.22;;;3.03;;
6422;SDS011;3244;42.708;23.288;2023-05-23T11:59:34;3.40;;;3.20;;
6422;SDS011;3244;42.708;23.288;2023-05-23T12:02:02;2.67;;;2.58;;
6422;SDS011;3244;42.708;23.288;2023-05-23T12:04:29;7.68;;;2.72;;
6422;SDS011;3244;42.708;23.288;2023-05-23T12:06:55;5.20;;;3.30;;
6422;SDS011;3244;42.708;23.288;2023-05-23T12:09:22;6.45;;;3.40;;
6422;SDS011;3244;42.708;23.288;2023-05-23T12:11:49;6.47;;;3.40;;
6422;SDS011;3244;42.708;23.288;2023-05-23T12:14:16;4.50;;;3.13;;
6422;SDS011;3244;42.708;23.288;2023-05-23T12:16:44;4.28;;;3.88;;
6422;SDS011;3244;42.708;23.288;2023-05-23T12:19:12;5.72;;;3.33;;
6422;SDS011;3244;42.708;23.288;2023-05-23T12:21:40;6.20;;;4.25;;
6422;SDS011;3244;42.708;23.288;2023-05-23T12:24:15;6.88;;;6.00;;
6422;SDS011;3244;42.708;23.288;2023-05-23T12:26:49;8.27;;;4.85;;
6422;SDS011;3244;42.708;23.288;2023-05-23T12:29:17;6.32;;;4.35;;
6422;SDS011;3244;42.708;23.288;2023-05-23T12:31:48;4.63;;;3.40;;
6422;SDS011;3244;42.708;23.288;2023-05-23T12:34:16;5.57;;;3.85;;
6422;SDS011;3244;42.708;23.288;2023-05-23T12:36:44;3.67;;;3.47;;
6422;SDS011;3244;42.708;23.288;2023-05-23T12:39:13;11.27;;;4.05;;
6422;SDS011;3244;42.708;23.288;2023-05-23T12:41:40;5.97;;;4.15;;
6422;SDS011;3244;42.708;23.288;2023-05-23T12:44:08;3.22;;;3.03;;
6422;SDS011;3244;42.708;23.288;2023-05-23T12:46:35;6.47;;;2.97;;
6422;SDS011;3244;42.708;23.288;2023-05-23T12:49:04;3.35;;;3.15;;
6422;SDS011;3244;42.708;23.288;2023-05-23T12:51:31;3.50;;;3.30;;
6422;SDS011;3244;42.708;23.288;2023-05-23T12:53:57;3.17;;;2.85;;
6422;SDS011;3244;42.708;23.288;2023-05-23T12:56:24;5.75;;;3.08;;
6422;SDS011;3244;42.708;23.288;2023-05-23T12:58:51;5.88;;;3.25;;
6422;SDS011;3244;42.708;23.288;2023-05-23T13:01:18;3.67;;;3.35;;
6422;SDS011;3244;42.708;23.288;2023-05-23T13:03:46;4.35;;;3.25;;
6422;SDS011;3244;42.708;23.288;2023-05-23T13:06:14;6.75;;;3.22;;
6422;SDS011;3244;42.708;23.288;2023-05-23T13:08:40;5.13;;;2.65;;
6422;SDS011;3244;42.708;23.288;2023-05-23T13:11:08;6.22;;;2.95;;
6422;SDS011;3244;42.708;23.288;2023-05-23T13:13:34;5.20;;;3.13;;
6422;SDS011;3244;42.708;23.288;2023-05-23T13:16:01;4.28;;;3.08;;
6422;SDS011;3244;42.708;23.288;2023-05-23T13:18:28;3.78;;;3.17;;
6422;SDS011;3244;42.708;23.288;2023-05-23T13:20:54;2.97;;;2.65;;
6422;SDS011;3244;42.708;23.288;2023-05-23T13:23:22;7.30;;;3.03;;
6422;SDS011;3244;42.708;23.288;2023-05-23T13:25:50;3.40;;;2.72;;
6422;SDS011;3244;42.708;23.288;2023-05-23T13:28:16;3.28;;;3.05;;
6422;SDS011;3244;42.708;23.288;2023-05-23T13:30:43;2.85;;;2.65;;
6422;SDS011;3244;42.708;23.288;2023-05-23T13:33:10;2.92;;;2.72;;
6422;SDS011;3244;42.708;23.288;2023-05-23T13:35:37;6.90;;;3.22;;
6422;SDS011;3244;42.708;23.288;2023-05-23T13:38:03;3.05;;;2.85;;
6422;SDS011;3244;42.708;23.288;2023-05-23T13:40:31;3.10;;;2.90;;
6422;SDS011;3244;42.708;23.288;2023-05-23T13:42:58;4.47;;;3.00;;
6422;SDS011;3244;42.708;23.288;2023-05-23T13:45:25;7.88;;;2.95;;
6422;SDS011;3244;42.708;23.288;2023-05-23T13:47:52;3.63;;;2.58;;
6422;SDS011;3244;42.708;23.288;2023-05-23T13:50:18;7.28;;;4.18;;
6422;SDS011;3244;42.708;23.288;2023-05-23T13:52:45;4.80;;;2.78;;
6422;SDS011;3244;42.708;23.288;2023-05-23T13:55:12;3.60;;;3.38;;
6422;SDS011;3244;42.708;23.288;2023-05-23T13:57:40;2.80;;;2.60;;
6422;SDS011;3244;42.708;23.288;2023-05-23T14:00:07;6.15;;;4.78;;
6422;SDS011;3244;42.708;23.288;2023-05-23T14:02:35;7.20;;;3.78;;
6422;SDS011;3244;42.708;23.288;2023-05-23T14:05:02;7.25;;;4.00;;
6422;SDS011;3244;42.708;23.288;2023-05-23T14:07:31;4.03;;;3.55;;
6422;SDS011;3244;42.708;23.288;2023-05-23T14:09:57;3.33;;;3.13;;
6422;SDS011;3244;42.708;23.288;2023-05-23T14:12:24;3.47;;;3.17;;
6422;SDS011;3244;42.708;23.288;2023-05-23T14:14:52;7.18;;;3.80;;
6422;SDS011;3244;42.708;23.288;2023-05-23T14:17:19;5.80;;;3.47;;
6422;SDS011;3244;42.708;23.288;2023-05-23T14:19:46;10.52;;;3.97;;
6422;SDS011;3244;42.708;23.288;2023-05-23T14:22:12;4.00;;;3.60;;
6422;SDS011;3244;42.708;23.288;2023-05-23T14:24:39;5.47;;;4.03;;
6422;SDS011;3244;42.708;23.288;2023-05-23T14:27:06;4.30;;;3.83;;
6422;SDS011;3244;42.708;23.288;2023-05-23T14:29:33;6.20;;;4.30;;
6422;SDS011;3244;42.708;23.288;2023-05-23T14:32:01;5.57;;;3.67;;
6422;SDS011;3244;42.708;23.288;2023-05-23T14:34:28;6.30;;;4.88;;
6422;SDS011;3244;42.708;23.288;2023-05-23T14:36:55;8.80;;;3.60;;
6422;SDS011;3244;42.708;23.288;2023-05-23T14:39:21;8.15;;;5.25;;
6422;SDS011;3244;42.708;23.288;2023-05-23T14:41:49;3.92;;;3.63;;
6422;SDS011;3244;42.708;23.288;2023-05-23T14:44:16;7.63;;;3.45;;
6422;SDS011;3244;42.708;23.288;2023-05-23T14:46:42;4.20;;;3.65;;
6422;SDS011;3244;42.708;23.288;2023-05-23T14:49:13;7.97;;;3.40;;
6422;SDS011;3244;42.708;23.288;2023-05-23T14:51:40;6.00;;;3.65;;
6422;SDS011;3244;42.708;23.288;2023-05-23T14:54:07;3.65;;;3.35;;
6422;SDS011;3244;42.708;23.288;2023-05-23T14:56:34;5.72;;;3.05;;
6422;SDS011;3244;42.708;23.288;2023-05-23T14:59:01;6.15;;;3.30;;
6422;SDS011;3244;42.708;23.288;2023-05-23T15:01:28;6.10;;;3.65;;
6422;SDS011;3244;42.708;23.288;2023-05-23T15:03:55;3.80;;;3.50;;
6422;SDS011;3244;42.708;23.288;2023-05-23T15:06:23;3.55;;;3.25;;